Time;durP1;ratioP1;P1;durP2;ratioP2;P2;SDS_P1;SDS_P2;PMS_P1;PMS_P2;Temp;Humidity;BMP_temperature;BMP_pressure;BME280_temperature;BME280_humidity;BME280_pressure;Samples;Min_cycle;Max_cycle;Signal;HPM_P1;HPM_P2
2021/10/31 00:00:53;;;;;;;21.57;17.07;;;;;;;6.12;86.42;101493.53;5014063;28;20034;-68
2021/10/31 00:03:18;;;;;;;27.37;18.60;;;;;;;6.19;86.58;101500.03;5031684;28;20041;-68
2021/10/31 00:05:44;;;;;;;26.03;17.80;;;;;;;6.18;86.51;101494.84;5031413;28;20043;-68
2021/10/31 00:08:10;;;;;;;25.23;18.57;;;;;;;6.08;86.02;101485.94;5031337;28;20124;-68
2021/10/31 00:10:36;;;;;;;27.47;17.30;;;;;;;6.12;85.84;101500.63;5031985;28;20037;-67
2021/10/31 00:13:01;;;;;;;26.03;18.10;;;;;;;6.08;85.99;101491.22;5031721;28;20090;-67
2021/10/31 00:15:27;;;;;;;22.83;17.90;;;;;;;6.03;86.28;101478.31;5031616;28;20037;-67
2021/10/31 00:17:53;;;;;;;25.40;17.83;;;;;;;6.08;86.05;101494.72;5014210;28;20037;-68
2021/10/31 00:20:18;;;;;;;25.17;18.70;;;;;;;6.04;86.33;101482.66;5014162;28;20171;-68
2021/10/31 00:22:45;;;;;;;24.63;18.27;;;;;;;5.97;86.63;101478.78;5032758;28;20547;-68
2021/10/31 00:25:11;;;;;;;23.93;19.93;;;;;;;5.98;86.52;101479.63;5032396;28;20052;-68
2021/10/31 00:27:38;;;;;;;29.10;18.13;;;;;;;5.90;87.06;101478.41;5033485;28;20041;-68
2021/10/31 00:30:04;;;;;;;27.33;20.60;;;;;;;5.98;87.08;101491.06;5033839;28;20123;-68
2021/10/31 00:32:29;;;;;;;24.83;18.80;;;;;;;5.97;86.35;101475.31;5034794;28;20025;-67
2021/10/31 00:34:57;;;;;;;24.43;19.23;;;;;;;6.02;86.47;101489.88;5035575;28;20045;-67
2021/10/31 00:37:23;;;;;;;27.13;19.33;;;;;;;6.03;86.70;101482.78;5035087;28;20455;-67
2021/10/31 00:39:51;;;;;;;21.63;18.33;;;;;;;6.02;86.38;101487.22;5034010;28;20057;-66
2021/10/31 00:42:16;;;;;;;26.47;19.03;;;;;;;5.92;86.46;101472.19;5034057;28;20069;-66
2021/10/31 00:44:43;;;;;;;27.47;20.00;;;;;;;5.97;86.97;101488.53;5020058;28;20144;-66
2021/10/31 00:47:09;;;;;;;29.83;20.37;;;;;;;5.93;86.03;101473.84;5019881;28;20045;-66
2021/10/31 00:49:35;;;;;;;22.60;17.77;;;;;;;5.83;86.88;101457.81;5020217;28;20037;-66
2021/10/31 00:52:01;;;;;;;29.67;19.97;;;;;;;5.87;86.96;101462.75;5036799;28;20029;-65
2021/10/31 00:54:28;;;;;;;27.53;21.03;;;;;;;5.92;87.17;101477.47;5038031;28;20048;-65
2021/10/31 00:56:54;;;;;;;28.97;20.77;;;;;;;5.90;86.41;101467.84;5037366;28;20041;-66
2021/10/31 00:59:19;;;;;;;28.47;19.67;;;;;;;5.98;86.23;101477.00;5039037;28;20043;-64
2021/10/31 01:01:46;;;;;;;23.77;19.47;;;;;;;5.92;86.51;101472.19;5035163;28;20124;-66
2021/10/31 01:04:19;;;;;;;28.93;19.83;;;;;;;5.98;86.57;101479.63;5034437;28;20087;-69
2021/10/31 01:07:06;;;;;;;25.87;18.43;;;;;;;5.96;86.37;101473.63;5034617;28;20448;-68
2021/10/31 01:09:51;;;;;;;27.43;20.70;;;;;;;5.96;86.36;101478.91;5035026;28;20033;-70
2021/10/31 01:12:34;;;;;;;29.10;19.03;;;;;;;5.90;86.68;101465.19;5034279;28;20033;-67
2021/10/31 01:15:28;;;;;;;24.33;18.50;;;;;;;5.91;85.85;101460.75;5034530;28;20098;-68
2021/10/31 01:18:17;;;;;;;27.37;18.93;;;;;;;5.98;85.97;101469.06;5016552;28;20030;-68
2021/10/31 01:21:18;;;;;;;26.27;19.23;;;;;;;5.95;86.13;101471.94;5034161;28;20052;-69
2021/10/31 01:24:02;;;;;;;27.73;20.00;;;;;;;5.94;85.93;101472.91;5034535;28;20116;-70
2021/10/31 01:26:37;;;;;;;27.23;18.53;;;;;;;5.92;85.90;101464.25;5034017;28;20041;-67
2021/10/31 01:29:47;;;;;;;29.67;20.17;;;;;;;5.89;86.39;101471.44;5033916;28;20465;-67
2021/10/31 01:32:54;;;;;;;25.60;18.20;;;;;;;5.89;86.30;101466.16;5010362;28;20049;-66
2021/10/31 01:35:52;;;;;;;29.43;19.47;;;;;;;5.76;86.22;101444.19;4973223;28;20201;-68
2021/10/31 01:38:31;;;;;;;;;;;;;;;5.89;85.86;101460.88;5034531;28;20107;-66
2021/10/31 01:41:12;;;;;;;25.40;18.93;;;;;;;5.93;85.75;101463.28;5034282;28;19921;-66
2021/10/31 01:43:53;;;;;;;25.37;19.73;;;;;;;5.94;86.00;101465.81;5033888;28;20033;-73
2021/10/31 01:46:56;;;;;;;26.53;17.70;;;;;;;5.98;86.12;101451.41;5033717;28;20048;-69
2021/10/31 01:49:29;;;;;;;26.13;19.07;;;;;;;6.01;85.55;101455.59;5033782;28;20041;-67
2021/10/31 01:51:59;;;;;;;29.17;21.27;;;;;;;6.04;85.34;101452.72;5015994;28;20125;-67
2021/10/31 01:54:37;;;;;;;24.67;19.00;;;;;;;6.07;85.49;101460.44;5033441;28;20045;-66
2021/10/31 01:57:07;;;;;;;26.23;19.95;;;;;;;5.98;85.17;101440.81;5033626;28;20030;-68
2021/10/31 01:59:43;;;;;;;29.37;20.77;;;;;;;5.99;85.28;101441.66;5033531;28;20040;-67
2021/10/31 02:02:10;;;;;;;31.47;20.90;;;;;;;5.93;85.11;101431.56;5033493;28;20033;-67
2021/10/31 02:04:38;;;;;;;25.97;20.00;;;;;;;5.90;85.12;101430.84;5033226;28;20033;-68
2021/10/31 02:07:05;;;;;;;24.77;19.60;;;;;;;5.98;85.14;101442.63;5033393;28;20049;-68
2021/10/31 02:09:33;;;;;;;28.93;19.63;;;;;;;5.95;85.67;101434.94;5033631;28;20261;-68
2021/10/31 02:11:59;;;;;;;26.27;19.03;;;;;;;5.90;85.29;101441.41;5033205;28;20033;-67
2021/10/31 02:14:26;;;;;;;26.00;19.70;;;;;;;5.96;85.55;101439.25;5033072;28;20120;-68
2021/10/31 02:16:55;;;;;;;23.93;19.23;;;;;;;5.82;84.91;101433.19;5033225;28;20037;-66
2021/10/31 02:19:22;;;;;;;;;;;;;;;5.97;85.74;101444.44;5033361;28;20611;-66
2021/10/31 02:21:54;;;;;;;27.73;19.50;;;;;;;5.92;85.14;101429.88;5033488;28;19921;-70
2021/10/31 02:24:20;;;;;;;29.63;19.60;;;;;;;6.01;85.16;101434.44;5032374;28;20059;-66
2021/10/31 02:26:45;;;;;;;25.30;18.23;;;;;;;5.93;84.63;101426.28;5033842;28;20471;-66
2021/10/31 02:29:10;;;;;;;28.03;19.73;;;;;;;5.93;85.56;101428.91;5033052;28;20041;-67
2021/10/31 02:31:37;;;;;;;26.17;18.17;;;;;;;5.83;84.83;101421.66;5032895;28;20121;-66
2021/10/31 02:34:06;;;;;;;28.20;20.53;;;;;;;5.95;84.83;101438.41;5032453;28;20037;-68
2021/10/31 02:36:33;;;;;;;29.73;18.88;;;;;;;5.87;85.54;101424.91;5032909;28;20033;-69
2021/10/31 02:39:05;;;;;;;26.93;19.83;;;;;;;5.88;85.10;101430.06;5032954;28;20060;-66
2021/10/31 02:41:32;;;;;;;27.87;19.03;;;;;;;5.82;84.99;101430.53;5015141;28;20051;-68
2021/10/31 02:43:58;;;;;;;28.73;20.97;;;;;;;5.87;85.36;101444.25;5032635;28;20026;-69
2021/10/31 02:46:27;;;;;;;30.50;19.90;;;;;;;5.86;84.86;101436.44;5032515;28;20033;-66
2021/10/31 02:48:53;;;;;;;27.80;19.00;;;;;;;5.61;85.26;101405.72;5032815;28;20041;-67
2021/10/31 02:51:28;;;;;;;25.87;21.13;;;;;;;5.86;85.10;101436.44;5032513;28;20447;-67
2021/10/31 02:54:05;;;;;;;25.47;20.43;;;;;;;5.81;84.92;101434.16;5033094;28;20041;-68
2021/10/31 02:56:39;;;;;;;25.13;19.47;;;;;;;5.77;85.64;101430.03;5032457;28;20033;-67
2021/10/31 02:59:23;;;;;;;28.63;20.33;;;;;;;5.79;85.47;101435.22;5014904;28;20037;-73
2021/10/31 03:01:50;;;;;;;26.27;19.60;;;;;;;5.78;84.80;101444.97;5032678;28;20037;-74
2021/10/31 03:04:17;;;;;;;26.10;19.53;;;;;;;5.68;85.96;101433.38;5032549;28;20171;-71
2021/10/31 03:06:44;;;;;;;27.77;19.60;;;;;;;5.63;85.41;101424.94;5013681;28;20048;-71
2021/10/31 03:09:11;;;;;;;31.10;20.27;;;;;;;5.68;85.26;101432.53;5015031;28;20052;-72
2021/10/31 03:11:36;;;;;;;32.53;19.83;;;;;;;5.66;86.20;101435.28;5032407;28;20552;-70
2021/10/31 03:14:02;;;;;;;28.63;19.17;;;;;;;5.58;85.93;101424.44;5032166;28;20041;-72
2021/10/31 03:16:27;;;;;;;28.60;21.97;;;;;;;5.59;86.06;101434.06;5032187;28;20056;-73
2021/10/31 03:18:53;;;;;;;25.83;19.47;;;;;;;5.61;86.01;101434.78;5014456;28;20408;-70
2021/10/31 03:21:19;;;;;;;25.20;19.67;;;;;;;5.60;86.22;101441.03;5031743;28;20049;-67
2021/10/31 03:23:44;;;;;;;30.07;20.70;;;;;;;5.56;85.73;101429.00;5032258;28;20083;-67
2021/10/31 03:26:10;;;;;;;27.83;21.10;;;;;;;5.48;85.90;101431.34;5032976;28;20400;-68
2021/10/31 03:28:36;;;;;;;27.10;19.50;;;;;;;5.52;86.31;101432.84;5032034;28;20496;-66
2021/10/31 03:31:01;;;;;;;28.33;20.90;;;;;;;5.45;86.36;101426.28;5031900;28;20040;-65
2021/10/31 03:33:27;;;;;;;25.77;20.70;;;;;;;5.50;86.36;101432.94;5031752;28;20099;-64
2021/10/31 03:35:53;;;;;;;26.47;20.17;;;;;;;5.41;86.09;101414.28;5031696;28;20061;-66
2021/10/31 03:38:19;;;;;;;28.27;21.30;;;;;;;5.46;86.24;101417.41;5031636;28;20080;-70
2021/10/31 03:40:46;;;;;;;28.87;20.10;;;;;;;5.46;85.84;101414.78;5014756;28;20049;-68
2021/10/31 03:43:12;;;;;;;27.83;19.83;;;;;;;5.44;86.42;101406.97;5031838;28;20061;-67
2021/10/31 03:45:39;;;;;;;25.80;20.57;;;;;;;5.47;86.18;101419.09;5031643;28;20040;-66
2021/10/31 03:48:06;;;;;;;33.90;21.07;;;;;;;5.33;85.60;101412.22;5031506;28;20033;-67
2021/10/31 03:50:32;;;;;;;26.70;19.33;;;;;;;5.30;86.56;101412.44;5031850;28;20033;-65
2021/10/31 03:52:58;;;;;;;29.97;19.67;;;;;;;5.33;86.05;101428.06;5031230;28;20037;-64
2021/10/31 03:55:23;;;;;;;31.87;21.13;;;;;;;5.31;86.39;101426.50;5014565;28;20062;-65
2021/10/31 03:57:49;;;;;;;28.60;21.30;;;;;;;5.26;87.02;101426.84;5031899;28;20369;-69
2021/10/31 04:00:15;;;;;;;36.33;22.13;;;;;;;5.22;86.20;101431.50;5031676;28;20095;-67
2021/10/31 04:02:42;;;;;;;41.57;23.13;;;;;;;5.17;86.69;101433.59;5031541;28;20467;-67
2021/10/31 04:05:09;;;;;;;27.53;20.73;;;;;;;5.11;86.52;101434.06;5013743;28;20033;-66
2021/10/31 04:07:35;;;;;;;34.47;23.67;;;;;;;5.04;87.57;101416.97;5031442;28;20207;-65
2021/10/31 04:10:02;;;;;;;35.27;24.70;;;;;;;5.08;87.64;101423.72;5014808;28;20545;-67
2021/10/31 04:12:29;;;;;;;36.63;24.27;;;;;;;5.06;87.32;101425.63;5031733;28;20042;-66
2021/10/31 04:14:54;;;;;;;32.60;23.77;;;;;;;5.07;86.97;101422.03;4997620;28;20042;-65
2021/10/31 04:17:20;;;;;;;41.10;25.37;;;;;;;5.04;87.07;101427.53;5031471;28;20076;-67
2021/10/31 04:19:46;;;;;;;35.40;24.30;;;;;;;5.01;87.28;101414.56;5035188;28;20033;-66
2021/10/31 04:22:11;;;;;;;32.20;23.17;;;;;;;5.06;87.63;101425.63;5035125;28;20382;-72
2021/10/31 04:24:37;;;;;;;34.43;23.33;;;;;;;4.91;87.76;101405.59;5037034;28;20042;-69
2021/10/31 04:27:03;;;;;;;35.57;25.07;;;;;;;4.83;87.65;101397.41;5017557;28;20052;-67
2021/10/31 04:29:29;;;;;;;33.43;24.00;;;;;;;5.01;87.48;101422.47;5034980;28;20037;-68
2021/10/31 04:31:55;;;;;;;34.37;23.93;;;;;;;5.01;87.64;101421.63;5035086;28;20052;-68
2021/10/31 04:34:22;;;;;;;32.00;24.17;;;;;;;5.05;87.37;101431.03;5034873;28;20532;-67
2021/10/31 04:36:50;;;;;;;33.20;24.00;;;;;;;4.97;87.64;101410.47;5035291;28;20449;-66
2021/10/31 04:39:17;;;;;;;34.35;24.52;;;;;;;5.03;87.99;101431.13;5014973;28;20046;-67
2021/10/31 04:41:46;;;;;;;31.80;23.03;;;;;;;5.08;88.02;101428.16;5015741;28;20048;-67
2021/10/31 04:44:13;;;;;;;32.53;24.30;;;;;;;5.05;87.86;101426.59;5015294;28;20048;-67
2021/10/31 04:46:40;;;;;;;35.03;23.60;;;;;;;5.08;87.44;101428.16;5013836;28;20045;-65
2021/10/31 04:49:05;;;;;;;37.87;25.70;;;;;;;5.07;87.40;101427.31;5014820;28;20165;-69
2021/10/31 04:51:31;;;;;;;35.10;22.77;;;;;;;5.02;87.20;101404.84;5014897;28;20445;-68
2021/10/31 04:53:57;;;;;;;31.87;22.20;;;;;;;5.05;87.37;101423.09;5017268;28;20105;-63
2021/10/31 04:56:23;;;;;;;30.90;22.83;;;;;;;5.04;87.08;101427.53;5018120;28;20041;-64
2021/10/31 04:58:53;;;;;;;32.67;23.13;;;;;;;5.01;87.10;101414.56;5016157;28;20130;-68
2021/10/31 05:01:20;;;;;;;35.40;22.73;;;;;;;4.97;87.58;101415.75;5015071;28;20030;-62
2021/10/31 05:03:46;;;;;;;32.00;23.40;;;;;;;4.97;87.17;101418.38;5014806;28;20034;-67
2021/10/31 05:06:12;;;;;;;30.47;24.57;;;;;;;4.91;87.87;101402.97;5030139;28;20096;-63
2021/10/31 05:08:38;;;;;;;35.33;24.30;;;;;;;4.94;87.42;101406.25;5015208;28;20487;-64
2021/10/31 05:11:04;;;;;;;28.87;22.53;;;;;;;4.90;87.64;101403.91;5015806;28;20034;-66
2021/10/31 05:13:29;;;;;;;34.47;24.53;;;;;;;4.79;87.04;101377.47;5014780;28;20048;-67
2021/10/31 05:15:56;;;;;;;35.13;23.47;;;;;;;4.84;87.09;101401.72;5014742;28;20030;-67
2021/10/31 05:18:21;;;;;;;36.87;23.80;;;;;;;4.80;87.19;101393.19;5014410;28;20037;-66
2021/10/31 05:20:47;;;;;;;35.87;26.07;;;;;;;4.82;88.16;101390.44;5014681;28;20034;-64
2021/10/31 05:23:13;;;;;;;36.77;24.03;;;;;;;4.82;88.09;101385.16;5014650;28;20128;-66
2021/10/31 05:25:38;;;;;;;34.00;24.47;;;;;;;4.84;88.06;101396.44;5015412;28;20042;-65
2021/10/31 05:28:04;;;;;;;30.07;21.57;;;;;;;4.79;87.72;101386.22;5014232;28;20504;-67
2021/10/31 05:30:30;;;;;;;33.10;23.40;;;;;;;4.80;87.36;101387.06;5013508;28;20045;-67
2021/10/31 05:32:56;;;;;;;28.90;22.07;;;;;;;4.80;87.58;101397.63;5029204;28;20168;-65
2021/10/31 05:35:22;;;;;;;32.93;23.73;;;;;;;4.68;87.28;101387.94;5013115;28;20048;-64
2021/10/31 05:37:54;;;;;;;32.70;23.97;;;;;;;4.81;87.34;101394.03;5015894;28;20111;-68
2021/10/31 05:40:19;;;;;;;32.27;23.07;;;;;;;4.77;87.68;101392.56;5035896;28;20053;-63
2021/10/31 05:42:45;;;;;;;36.60;24.43;;;;;;;4.76;88.05;101391.72;5034011;28;20048;-64
2021/10/31 05:45:11;;;;;;;33.03;23.23;;;;;;;4.72;88.11;101381.50;5032624;28;20044;-69
2021/10/31 05:47:38;;;;;;;31.83;22.83;;;;;;;4.85;87.77;101392.84;5033638;28;20038;-62
2021/10/31 05:50:06;;;;;;;34.17;24.23;;;;;;;4.86;88.22;101386.63;5034672;28;20033;-64
2021/10/31 05:52:32;;;;;;;33.97;22.83;;;;;;;4.74;87.79;101369.03;5036940;28;20687;-65
2021/10/31 05:54:59;;;;;;;27.67;22.03;;;;;;;4.88;87.47;101390.81;5034022;28;20034;-66
2021/10/31 05:57:26;;;;;;;32.83;24.07;;;;;;;4.91;88.08;101400.31;5033615;28;20063;-63
2021/10/31 05:59:51;;;;;;;34.77;24.33;;;;;;;4.92;88.08;101392.31;5033340;28;20051;-63
2021/10/31 06:02:17;;;;;;;29.47;22.43;;;;;;;4.94;87.29;101389.56;5033287;28;20029;-64
2021/10/31 06:04:45;;;;;;;33.73;22.33;;;;;;;4.97;87.64;101394.63;5033416;28;20029;-66
2021/10/31 06:07:11;;;;;;;32.73;19.67;;;;;;;4.94;87.26;101379.00;5033476;28;20120;-64
2021/10/31 06:09:36;;;;;;;32.00;22.40;;;;;;;5.01;87.11;101382.88;5034677;28;20128;-63
2021/10/31 06:12:08;;;;;;;30.00;20.90;;;;;;;5.08;87.63;101380.63;5033004;28;20478;-62
2021/10/31 06:14:37;;;;;;;29.13;20.83;;;;;;;5.09;87.60;101383.16;5033137;28;20041;-66
2021/10/31 06:17:04;;;;;;;30.07;21.10;;;;;;;5.12;87.08;101388.22;5033519;28;20029;-67
2021/10/31 06:19:33;;;;;;;27.53;20.93;;;;;;;5.10;87.57;101374.28;5033104;28;20045;-70
2021/10/31 06:21:59;;;;;;;35.23;23.80;;;;;;;5.10;87.60;101366.38;5033252;28;20128;-65
2021/10/31 06:24:25;;;;;;;31.47;23.80;;;;;;;5.16;87.21;101379.09;5033806;28;20040;-66
2021/10/31 06:26:51;;;;;;;30.77;21.97;;;;;;;5.18;87.93;101371.91;5033300;28;20572;-63
2021/10/31 06:29:17;;;;;;;33.60;22.17;;;;;;;5.23;87.39;101374.25;5032813;28;20121;-64
2021/10/31 06:31:43;;;;;;;29.63;22.33;;;;;;;5.33;86.64;101383.16;5033176;28;20124;-66
2021/10/31 06:34:09;;;;;;;34.23;23.67;;;;;;;5.28;86.42;101361.53;5033125;28;20112;-65
2021/10/31 06:36:35;;;;;;;33.80;24.00;;;;;;;5.33;86.40;101379.69;5032978;28;20468;-64
2021/10/31 06:39:02;;;;;;;32.50;24.50;;;;;;;5.21;86.18;101358.50;5033772;28;20441;-64
2021/10/31 06:41:28;;;;;;;32.27;23.43;;;;;;;5.35;86.70;101386.53;5032799;28;20064;-63
2021/10/31 06:43:53;;;;;;;32.93;23.63;;;;;;;5.38;86.53;101383.66;5032731;28;20500;-65
2021/10/31 06:46:19;;;;;;;33.10;23.13;;;;;;;5.34;86.09;101368.16;5032909;28;20083;-68
2021/10/31 06:48:44;;;;;;;33.23;23.47;;;;;;;5.35;85.85;101361.91;5032726;28;20034;-63
2021/10/31 06:51:09;;;;;;;35.67;25.60;;;;;;;5.45;85.89;101358.47;5015425;28;20584;-65
2021/10/31 06:53:35;;;;;;;40.77;23.00;;;;;;;5.57;86.28;101372.56;5033179;28;20103;-63
2021/10/31 06:56:01;;;;;;;30.53;21.87;;;;;;;5.56;85.82;101366.44;5034009;28;20492;-64
2021/10/31 06:58:35;;;;;;;40.53;25.93;;;;;;;5.65;85.86;101375.47;5032253;28;20037;-64
2021/10/31 07:01:01;;;;;;;29.07;22.80;;;;;;;5.76;85.60;101375.47;5032315;28;20044;-64
2021/10/31 07:03:26;;;;;;;31.67;23.43;;;;;;;5.73;84.55;101356.38;5032412;28;20030;-64
2021/10/31 07:05:52;;;;;;;35.63;25.20;;;;;;;5.90;84.69;101385.91;5032069;28;20030;-66
2021/10/31 07:08:18;;;;;;;35.33;28.27;;;;;;;6.03;84.63;101384.94;5033157;28;20083;-62
2021/10/31 07:10:44;;;;;;;37.27;26.17;;;;;;;5.95;84.52;101367.03;5015524;28;20029;-69
2021/10/31 07:13:09;;;;;;;36.17;27.87;;;;;;;6.00;83.80;101364.03;5031888;28;20042;-65
2021/10/31 07:15:35;;;;;;;38.00;27.20;;;;;;;6.05;83.55;101368.00;5032250;28;20033;-67
2021/10/31 07:18:00;;;;;;;36.93;28.13;;;;;;;6.15;84.01;101368.16;5032592;28;20522;-64
2021/10/31 07:20:26;;;;;;;32.90;25.90;;;;;;;6.28;83.50;101363.56;5031942;28;20038;-64
2021/10/31 07:22:55;;;;;;;38.70;28.07;;;;;;;6.45;83.19;101376.31;5032390;28;20040;-65
2021/10/31 07:25:22;;;;;;;43.25;28.27;;;;;;;6.52;82.66;101356.34;5034236;28;20035;-68
2021/10/31 07:27:52;;;;;;;44.97;28.00;;;;;;;6.57;82.23;101360.41;5032562;28;20049;-68
2021/10/31 07:30:18;;;;;;;37.30;25.97;;;;;;;6.62;82.25;101358.25;5031927;28;20400;-64
2021/10/31 07:32:43;;;;;;;39.13;27.33;;;;;;;6.73;82.48;101371.47;5032009;28;20037;-64
2021/10/31 07:35:10;;;;;;;40.27;27.97;;;;;;;6.72;81.21;101356.56;5031914;28;20107;-66
2021/10/31 07:37:36;;;;;;;41.23;28.73;;;;;;;6.76;82.07;101361.50;5031604;28;20040;-64
2021/10/31 07:40:07;;;;;;;44.07;29.23;;;;;;;6.74;81.85;101362.56;5034974;28;20082;-63
2021/10/31 07:42:33;;;;;;;40.00;30.13;;;;;;;6.78;81.60;101345.47;5031867;28;20033;-64
2021/10/31 07:44:59;;;;;;;43.17;29.10;;;;;;;6.93;81.66;101381.28;5032326;28;20385;-64
2021/10/31 07:47:25;;;;;;;40.20;27.43;;;;;;;6.98;80.87;101383.59;5014031;28;20399;-63
2021/10/31 07:49:52;;;;;;;38.90;28.43;;;;;;;6.88;81.28;101383.47;5032191;28;20033;-69
2021/10/31 07:52:18;;;;;;;37.07;26.87;;;;;;;6.76;81.40;101366.78;5014234;28;20041;-62
2021/10/31 07:54:47;;;;;;;37.57;25.43;;;;;;;6.79;81.12;101374.47;5037496;28;20038;-65
2021/10/31 07:57:12;;;;;;;37.80;26.23;;;;;;;6.72;81.47;101370.66;5035820;28;20403;-66
2021/10/31 07:59:38;;;;;;;38.37;28.63;;;;;;;6.69;81.37;101372.69;5035896;28;20473;-62
2021/10/31 08:02:04;;;;;;;39.13;27.57;;;;;;;6.60;82.23;101362.81;5036054;28;20036;-65
2021/10/31 08:04:30;;;;;;;35.50;25.33;;;;;;;6.55;81.62;101359.72;5035839;28;20033;-63
2021/10/31 08:06:56;;;;;;;36.93;24.90;;;;;;;6.63;81.83;101370.50;5035770;28;20128;-63
2021/10/31 08:09:23;;;;;;;35.03;24.50;;;;;;;6.50;82.06;101337.09;5036091;28;20550;-65
2021/10/31 08:11:48;;;;;;;41.83;27.37;;;;;;;6.79;81.70;101376.28;5035557;28;20063;-63
2021/10/31 08:14:14;;;;;;;34.37;25.53;;;;;;;6.83;81.24;101369.78;5038755;28;20056;-66
2021/10/31 08:16:40;;;;;;;33.07;23.27;;;;;;;6.78;81.22;101382.53;5041344;28;20060;-65
2021/10/31 08:19:06;;;;;;;32.10;24.73;;;;;;;6.74;81.87;101367.88;5042261;28;20045;-64
2021/10/31 08:21:32;;;;;;;36.27;27.83;;;;;;;6.81;81.49;101369.91;5038188;28;20128;-65
2021/10/31 08:23:58;;;;;;;36.20;26.43;;;;;;;6.80;82.00;101359.44;5036265;28;20087;-63
2021/10/31 08:26:25;;;;;;;31.43;23.70;;;;;;;6.74;81.02;101346.69;5035288;28;20061;-64
2021/10/31 08:28:52;;;;;;;35.37;24.87;;;;;;;6.86;81.81;101360.75;5035060;28;20049;-65
2021/10/31 08:31:25;;;;;;;33.83;22.30;;;;;;;6.76;81.43;101342.97;5035099;28;20030;-67
2021/10/31 08:33:56;;;;;;;30.67;22.30;;;;;;;6.81;82.65;101354.00;5035432;28;20045;-64
2021/10/31 08:36:22;;;;;;;41.67;25.90;;;;;;;6.67;81.29;101340.22;5035489;28;20489;-64
2021/10/31 08:38:49;;;;;;;35.63;23.13;;;;;;;6.84;81.81;101360.88;5036069;28;20068;-63
2021/10/31 08:41:18;;;;;;;36.40;25.30;;;;;;;6.54;82.29;101311.22;5035316;28;20056;-65
2021/10/31 08:43:43;;;;;;;40.43;26.77;;;;;;;6.60;82.23;101315.19;5034818;28;20033;-67
2021/10/31 08:46:09;;;;;;;36.50;25.17;;;;;;;6.83;82.04;101353.88;5034428;28;20411;-63
2021/10/31 08:48:37;;;;;;;40.03;25.83;;;;;;;6.67;82.37;101349.00;5034553;28;20145;-64
2021/10/31 08:51:02;;;;;;;41.43;26.03;;;;;;;6.69;82.60;101357.66;5035234;28;20041;-63
2021/10/31 08:53:28;;;;;;;45.30;26.97;;;;;;;6.80;82.30;101375.31;5036157;28;20085;-66
2021/10/31 08:55:58;;;;;;;51.63;34.40;;;;;;;6.70;82.89;101353.22;5018691;28;20061;-64
2021/10/31 08:58:24;;;;;;;48.03;28.50;;;;;;;6.88;82.65;101366.75;5034643;28;20067;-66
2021/10/31 09:00:51;;;;;;;39.10;27.53;;;;;;;6.90;82.34;101370.94;5034545;28;20044;-68
2021/10/31 09:03:17;;;;;;;37.97;26.93;;;;;;;6.83;83.00;101361.81;5034531;28;20046;-63
2021/10/31 09:05:43;;;;;;;44.23;30.10;;;;;;;6.82;83.28;101357.50;5034693;28;20045;-64
2021/10/31 09:08:09;;;;;;;39.10;27.73;;;;;;;6.79;83.79;101357.75;5034789;28;20400;-65
2021/10/31 09:10:36;;;;;;;39.27;26.63;;;;;;;6.75;84.30;101348.38;5034594;28;20041;-63
2021/10/31 09:13:01;;;;;;;40.27;28.23;;;;;;;6.91;84.07;101362.03;5034174;28;20077;-63
2021/10/31 09:15:28;;;;;;;39.80;27.07;;;;;;;6.85;82.92;101336.06;5034259;28;20037;-63
2021/10/31 09:17:53;;;;;;;36.30;25.97;;;;;;;7.03;83.26;101355.75;5034669;28;20034;-63
2021/10/31 09:20:19;;;;;;;38.93;25.30;;;;;;;7.09;82.90;101339.38;5037605;28;20055;-63
2021/10/31 09:22:47;;;;;;;40.27;27.17;;;;;;;7.25;82.74;101360.16;5036426;28;20614;-66
2021/10/31 09:25:13;;;;;;;38.65;27.25;;;;;;;7.26;82.87;101350.41;5035204;28;20519;-68
2021/10/31 09:27:39;;;;;;;39.60;28.07;;;;;;;7.26;82.52;101342.44;5034053;28;20037;-65
2021/10/31 09:30:06;;;;;;;43.60;28.30;;;;;;;7.39;82.16;101346.59;5016585;28;20135;-63
2021/10/31 09:32:40;;;;;;;38.97;26.57;;;;;;;7.40;81.78;101347.44;5033775;28;20087;-68
2021/10/31 09:35:06;;;;;;;40.97;25.93;;;;;;;7.32;82.49;101333.97;5033577;28;20049;-64
2021/10/31 09:37:31;;;;;;;46.07;26.90;;;;;;;7.14;82.26;101301.91;5016205;28;20034;-63
2021/10/31 09:40:01;;;;;;;38.13;29.20;;;;;;;7.35;82.64;101323.97;5034306;28;20107;-66
2021/10/31 09:42:27;;;;;;;41.27;27.67;;;;;;;7.44;82.66;101323.19;5033743;28;20061;-63
2021/10/31 09:44:52;;;;;;;35.93;26.37;;;;;;;7.46;82.55;101312.47;5033675;28;20492;-63
2021/10/31 09:47:22;;;;;;;35.57;27.00;;;;;;;7.58;81.75;101311.44;5033383;28;20484;-68
2021/10/31 09:49:50;;;;;;;34.97;25.97;;;;;;;7.59;82.13;101321.06;5033810;28;20128;-66
2021/10/31 09:52:16;;;;;;;36.55;27.45;;;;;;;7.63;81.33;101327.78;5033902;28;20108;-67
2021/10/31 09:54:42;;;;;;;39.63;26.97;;;;;;;7.60;81.71;101312.16;5034425;28;20136;-63
2021/10/31 09:57:08;;;;;;;36.50;25.90;;;;;;;7.55;81.57;101313.50;5015629;28;20124;-64
2021/10/31 09:59:39;;;;;;;40.33;28.10;;;;;;;7.59;81.65;101315.78;5033359;28;20128;-63
2021/10/31 10:04:37;;;;;;;42.47;27.60;;;;;;;7.49;82.03;101298.94;5033530;28;20030;-67
2021/10/31 10:07:06;;;;;;;36.37;27.80;;;;;;;7.55;81.70;101292.31;5033221;28;20072;-68
2021/10/31 10:09:33;;;;;;;36.58;27.02;;;;;;;7.69;82.01;101295.44;5033678;28;20029;-64
2021/10/31 10:12:13;;;;;;;40.87;27.53;;;;;;;7.74;81.74;101292.41;5033420;28;20037;-65
2021/10/31 10:14:39;;;;;;;33.67;27.43;;;;;;;7.73;81.43;101277.47;5016021;28;20540;-63
2021/10/31 10:17:11;;;;;;;36.03;27.27;;;;;;;7.76;81.67;101279.84;5032693;28;20029;-65
2021/10/31 10:20:00;;;;;;;42.23;29.07;;;;;;;7.70;81.51;101267.13;5033690;28;20045;-66
2021/10/31 10:22:26;;;;;;;;;;;;;;;7.81;80.66;101280.31;5033906;28;20025;-63
2021/10/31 10:24:56;;;;;;;38.20;28.33;;;;;;;7.81;80.92;101287.44;5033888;28;19939;-64
2021/10/31 10:27:25;;;;;;;36.50;25.63;;;;;;;7.87;80.95;101271.84;5033577;28;20079;-64
2021/10/31 10:29:52;;;;;;;42.27;27.77;;;;;;;7.92;80.46;101255.50;5033322;28;20557;-63
2021/10/31 10:32:23;;;;;;;28.80;23.47;;;;;;;8.02;80.52;101248.44;5015367;28;20404;-63
2021/10/31 10:34:52;;;;;;;36.07;25.27;;;;;;;7.99;80.18;101236.28;5032987;28;20132;-68
2021/10/31 10:37:21;;;;;;;34.07;26.20;;;;;;;8.11;79.73;101247.63;5032705;28;20516;-64
2021/10/31 10:39:55;;;;;;;31.65;26.15;;;;;;;8.04;79.70;101235.88;5033404;28;20057;-64
2021/10/31 10:42:23;;;;;;;31.53;23.67;;;;;;;8.01;80.29;101213.09;5032773;28;20129;-65
2021/10/31 10:44:53;;;;;;;33.80;23.93;;;;;;;8.05;79.68;101209.19;5032565;28;20033;-69
2021/10/31 10:47:21;;;;;;;37.53;27.23;;;;;;;7.98;79.30;101183.38;5032800;28;20392;-63
2021/10/31 10:49:49;;;;;;;31.77;24.23;;;;;;;8.28;79.25;101222.25;5014802;28;20037;-66
2021/10/31 10:52:30;;;;;;;38.15;25.35;;;;;;;8.31;79.42;101212.19;5031693;28;20037;-67
2021/10/31 10:55:07;;;;;;;40.90;27.47;;;;;;;8.32;79.01;101215.69;5015340;28;20037;-65
2021/10/31 10:57:36;;;;;;;37.83;24.63;;;;;;;8.30;78.84;101213.19;5032692;28;20042;-65
2021/10/31 11:00:05;;;;;;;29.95;24.45;;;;;;;8.32;79.26;101197.94;5032722;28;20076;-64
2021/10/31 11:02:32;;;;;;;30.10;23.63;;;;;;;8.30;79.24;101183.16;5032496;28;20045;-65
2021/10/31 11:05:02;;;;;;;31.07;25.17;;;;;;;8.33;79.04;101175.78;5032507;28;20541;-64
2021/10/31 11:07:33;;;;;;;30.47;22.67;;;;;;;8.44;78.98;101189.91;5032793;28;20439;-70
2021/10/31 11:09:58;;;;;;;30.37;22.33;;;;;;;8.46;78.89;101177.34;5032684;28;20496;-66
2021/10/31 11:12:36;;;;;;;34.40;23.30;;;;;;;8.45;79.14;101163.22;5032620;28;20041;-63
2021/10/31 11:15:06;;;;;;;32.00;25.08;;;;;;;8.57;78.89;101171.88;5031980;28;20095;-61
2021/10/31 11:17:33;;;;;;;31.13;22.73;;;;;;;8.55;78.03;101172.03;5032159;28;20385;-64
2021/10/31 11:19:59;;;;;;;32.10;22.80;;;;;;;8.53;78.51;101159.88;5032024;28;20037;-67
2021/10/31 11:22:29;;;;;;;27.20;21.70;;;;;;;8.49;77.70;101172.59;5032262;28;20103;-72
2021/10/31 11:24:57;;;;;;;27.27;21.13;;;;;;;8.48;78.69;101184.19;5031823;28;20076;-67